Friday, December 14, 2018, 12:53 PM EST
Back to Local

KLOM, Philadelphia, Wings Field Airport

Location: Blue Bell, PA, United States Lat: 40.138
Local Time: 12:53 PM EST (17:53 GMT) Lon: -75.265
Time Zone: US/Eastern Elev: 301 ft

Show me the last for .
Show Decoded

2018-12-14 12:35 METAR KLOM 141735Z AUTO 13004KT 7SM OVC009 08/07 A3038 RMK AO1 =
2018-12-14 12:15 METAR KLOM 141715Z AUTO 14004KT 7SM OVC009 08/07 A3038 RMK AO1 =
2018-12-14 11:55 METAR KLOM 141655Z AUTO 13003KT 7SM OVC009 08/07 A3038 RMK AO1 =
2018-12-14 11:35 METAR KLOM 141635Z AUTO 13006KT 10SM OVC009 08/07 A3039 RMK AO1 =
2018-12-14 11:15 METAR KLOM 141615Z AUTO 12006KT 10SM OVC009 08/07 A3041 RMK AO1 =
2018-12-14 10:55 METAR KLOM 141555Z AUTO 13007KT 10SM OVC007 08/07 A3043 RMK AO1 =
2018-12-14 10:35 METAR KLOM 141535Z AUTO 12004KT 7SM OVC007 08/07 A3044 RMK AO1 =
2018-12-14 10:15 METAR KLOM 141515Z AUTO 11003KT 7SM OVC007 07/07 A3045 RMK AO1 =
2018-12-14 09:55 METAR KLOM 141455Z AUTO 09003KT 7SM OVC007 06/06 A3045 RMK AO1 =
2018-12-14 09:35 METAR KLOM 141435Z AUTO 07003KT 5SM OVC007 06/06 A3046 RMK AO1 =
2018-12-14 09:15 METAR KLOM 141415Z AUTO 00000KT 5SM OVC009 05/05 A3048 RMK AO1 =
2018-12-14 08:55 METAR KLOM 141355Z AUTO 00000KT 4SM SCT005 BKN011 OVC018 05/05 A3047 RMK AO1 =
2018-12-14 08:35 METAR KLOM 141335Z AUTO 00000KT 3SM SCT007 BKN020 OVC026 04/04 A3047 RMK AO1 =
2018-12-14 08:15 METAR KLOM 141315Z AUTO 00000KT 2 1/2SM SCT004 OVC008 03/03 A3046 RMK AO1 =
2018-12-14 07:55 METAR KLOM 141255Z AUTO 00000KT 2 1/2SM BKN004 OVC010 03/03 A3046 RMK AO1 =
2018-12-14 07:35 METAR KLOM 141235Z AUTO 00000KT 2 1/2SM OVC006 03/03 A3046 RMK AO1 =
2018-12-14 07:15 METAR KLOM 141215Z AUTO 00000KT 3SM OVC006 03/03 A3046 RMK AO1 =
2018-12-14 06:55 METAR KLOM 141155Z AUTO 00000KT 3SM BKN006 OVC015 03/03 A3046 RMK AO1 =
2018-12-14 06:35 METAR KLOM 141135Z AUTO 00000KT 3SM BKN006 OVC015 03/03 A3044 RMK AO1 =
2018-12-14 06:15 METAR KLOM 141115Z AUTO 06003KT 3SM BKN006 OVC015 03/03 A3043 RMK AO1 =
2018-12-14 05:55 METAR KLOM 141055Z AUTO 07003KT 3SM BKN006 OVC015 03/03 A3043 RMK AO1 =
2018-12-14 05:35 METAR KLOM 141035Z AUTO 06003KT 3SM BKN006 OVC011 03/03 A3043 RMK AO1 =
2018-12-14 05:15 METAR KLOM 141015Z AUTO 00000KT 4SM OVC006 03/03 A3043 RMK AO1 =
2018-12-14 04:55 METAR KLOM 140955Z AUTO 00000KT 4SM OVC006 03/03 A3043 RMK AO1 =
2018-12-14 04:35 METAR KLOM 140935Z AUTO 00000KT 4SM OVC006 03/03 A3042 RMK AO1 =
2018-12-14 04:15 METAR KLOM 140915Z AUTO 00000KT 4SM BKN006 OVC011 03/03 A3043 RMK AO1 =
2018-12-14 03:55 METAR KLOM 140855Z AUTO 00000KT 4SM SCT006 OVC011 03/03 A3043 RMK AO1 =
2018-12-14 03:35 METAR KLOM 140835Z AUTO 00000KT 4SM SCT006 OVC011 03/03 A3044 RMK AO1 =
2018-12-14 03:15 METAR KLOM 140815Z AUTO 00000KT 4SM BKN007 OVC012 03/03 A3045 RMK AO1 =
2018-12-14 02:55 METAR KLOM 140755Z AUTO 00000KT 4SM BKN007 OVC012 02/02 A3045 RMK AO1 =
2018-12-14 02:35 METAR KLOM 140735Z AUTO 06004KT 4SM BKN007 OVC011 02/02 A3045 RMK AO1 =
2018-12-14 02:15 METAR KLOM 140715Z AUTO 06005KT 4SM SCT007 OVC016 02/02 A3045 RMK AO1 =
2018-12-14 01:55 METAR KLOM 140655Z AUTO 06003KT 4SM BKN007 OVC013 02/02 A3045 RMK AO1 =
2018-12-14 01:35 METAR KLOM 140635Z AUTO 00000KT 5SM OVC007 02/02 A3045 RMK AO1 =
2018-12-14 01:15 METAR KLOM 140615Z AUTO 00000KT 4SM BKN007 OVC012 02/02 A3045 RMK AO1 =
2018-12-14 00:55 METAR KLOM 140555Z AUTO 00000KT 4SM SCT007 OVC012 01/01 A3045 RMK AO1 =
2018-12-14 00:35 METAR KLOM 140535Z AUTO 00000KT 4SM BKN012 BKN016 OVC030 01/01 A3045 RMK AO1 =
2018-12-14 00:15 METAR KLOM 140515Z AUTO 00000KT 5SM SCT009 BKN014 OVC070 01/01 A3045 RMK AO1 =
2018-12-13 23:55 METAR KLOM 140455Z AUTO 00000KT 5SM SCT010 SCT024 OVC029 01/01 A3046 RMK AO1 =
2018-12-13 23:35 METAR KLOM 140435Z AUTO 07003KT 5SM SCT008 SCT011 OVC029 01/01 A3046 RMK AO1 =
2018-12-13 23:15 METAR KLOM 140415Z AUTO 00000KT 4SM BKN008 BKN023 OVC030 00/00 A3046 RMK AO1 =
2018-12-13 22:55 METAR KLOM 140355Z AUTO 00000KT 4SM SCT008 BKN027 OVC070 00/00 A3046 RMK AO1 =
2018-12-13 22:35 METAR KLOM 140335Z AUTO 00000KT 4SM SCT003 OVC029 00/00 A3046 RMK AO1 =
2018-12-13 22:15 METAR KLOM 140315Z AUTO 06003KT 5SM SCT003 BKN007 BKN029 00/00 A3046 RMK AO1 =
2018-12-13 21:55 METAR KLOM 140255Z AUTO 06003KT 7SM SCT029 00/00 A3045 RMK AO1 =
2018-12-13 21:35 METAR KLOM 140235Z AUTO 05004KT 7SM CLR 00/00 A3045 RMK AO1 =
2018-12-13 21:15 METAR KLOM 140215Z AUTO 06003KT 7SM CLR 00/00 A3045 RMK AO1 =
2018-12-13 20:55 METAR KLOM 140155Z AUTO 06003KT 7SM SCT025 00/00 A3045 RMK AO1 =
2018-12-13 20:35 METAR KLOM 140135Z AUTO 06003KT 7SM CLR 00/00 A3045 RMK AO1 =
2018-12-13 20:15 METAR KLOM 140115Z AUTO 05003KT 10SM CLR 00/00 A3045 RMK AO1 =
2018-12-13 19:55 METAR KLOM 140055Z AUTO 00000KT 10SM CLR 01/00 A3045 RMK AO1 =
2018-12-13 19:35 METAR KLOM 140035Z AUTO 05003KT 10SM CLR 01/00 A3044 RMK AO1 =
2018-12-13 19:15 METAR KLOM 140015Z AUTO 05003KT 10SM CLR 01/00 A3043 RMK AO1 =
2018-12-13 18:55 METAR KLOM 132355Z AUTO 06003KT 10SM CLR 01/00 A3043 RMK AO1 =
2018-12-13 18:35 METAR KLOM 132335Z AUTO 05004KT 10SM SCT095 02/00 A3042 RMK AO1 =
2018-12-13 18:15 METAR KLOM 132315Z AUTO 06004KT 10SM BKN095 02/00 A3041 RMK AO1 =
2018-12-13 17:55 METAR KLOM 132255Z AUTO 05003KT 10SM BKN095 03/00 A3041 RMK AO1 =
2018-12-13 17:35 METAR KLOM 132235Z AUTO 05003KT 10SM OVC085 03/00 A3041 RMK AO1 =
2018-12-13 17:15 METAR KLOM 132215Z AUTO 05004KT 10SM OVC085 04/00 A3040 RMK AO1 =
2018-12-13 16:55 METAR KLOM 132155Z AUTO 05003KT 10SM OVC095 04/00 A3040 RMK AO1 =
2018-12-13 16:35 METAR KLOM 132135Z AUTO 06004KT 10SM SCT038 SCT060 OVC095 05/00 A3039 RMK AO1 =
2018-12-13 16:15 METAR KLOM 132115Z AUTO 00000KT 10SM SCT038 OVC095 05/00 A3039 RMK AO1 =
2018-12-13 15:55 METAR KLOM 132055Z AUTO 10005KT 10SM BKN038 OVC095 07/00 A3038 RMK AO1 =
2018-12-13 15:35 METAR KLOM 132035Z AUTO 09004KT 10SM BKN038 BKN080 OVC095 07/00 A3038 RMK AO1 =
2018-12-13 15:15 METAR KLOM 132015Z AUTO 13006KT 10SM BKN038 BKN080 OVC095 07/00 A3037 RMK AO1 =
2018-12-13 14:55 METAR KLOM 131955Z AUTO 14004KT 10SM BKN036 OVC042 07/00 A3037 RMK AO1 =
2018-12-13 14:35 METAR KLOM 131935Z AUTO 13006KT 10SM OVC036 07/00 A3036 RMK AO1 =
2018-12-13 14:15 METAR KLOM 131915Z AUTO 00000KT 10SM OVC038 07/00 A3036 RMK AO1 =
2018-12-13 13:55 METAR KLOM 131855Z AUTO 00000KT 10SM OVC035 07/01 A3036 RMK AO1 =
2018-12-13 13:15 METAR KLOM 131815Z AUTO 12005KT 10SM BKN034 OVC040 07/00 A3035 RMK AO1 =
2018-12-13 12:55 METAR KLOM 131755Z AUTO 11004KT 10SM SCT029 BKN038 07/00 A3035 RMK AO1 =

Support USWX by starting your Amazon purchase here.